Sweden, Maine
Current Conditions -  °F | °C
As of 4:13 PM on Wednesday 17 Dec 2014 (Local Time) from KIZG Reporting Station
Overcast Overcast  
Wind Chill: 35°   Ceiling: 2100
Heat Index: 39°   Visibility: 10mi
Dew Point: 37°   Wind: 6mph
Humidity: 93%   Direction: 360°N
Pressure: 29.7"   Gusts: NA
Location:  44.1001°N, 70.6448°W
Report Text: KIZG 172113Z AUTO 36005KT 10SM BKN021 OVC041 04/03 A2970 RMK AO2 T00390028
Loading
Personal Weather Stations






























Interactive Weather Map New forecast layout! Learn more

10-Day Weather Forecast

Advertisements
Track Severe Weather on mobile